sensor_id;sensor_type;location;lat;lon;timestamp;P1;durP1;ratioP1;P2;durP2;ratioP2
28298;SDS011;15565;52.600;6.456;2022-09-14T00:00:07;0.35;;;0.20;;
28298;SDS011;15565;52.600;6.456;2022-09-14T00:02:54;0.10;;;0.10;;
28298;SDS011;15565;52.600;6.456;2022-09-14T00:05:46;0.28;;;0.22;;
28298;SDS011;15565;52.600;6.456;2022-09-14T00:08:33;1.05;;;0.20;;
28298;SDS011;15565;52.600;6.456;2022-09-14T00:11:24;1.00;;;0.35;;
28298;SDS011;15565;52.600;6.456;2022-09-14T00:14:11;0.90;;;0.20;;
28298;SDS011;15565;52.600;6.456;2022-09-14T00:16:59;0.40;;;0.30;;
28298;SDS011;15565;52.600;6.456;2022-09-14T00:19:46;0.27;;;0.27;;
28298;SDS011;15565;52.600;6.456;2022-09-14T00:22:34;2.60;;;0.30;;
28298;SDS011;15565;52.600;6.456;2022-09-14T00:25:27;0.20;;;0.20;;
28298;SDS011;15565;52.600;6.456;2022-09-14T00:28:14;0.10;;;0.10;;
28298;SDS011;15565;52.600;6.456;2022-09-14T00:31:02;0.10;;;0.10;;
28298;SDS011;15565;52.600;6.456;2022-09-14T00:33:49;0.22;;;0.22;;
28298;SDS011;15565;52.600;6.456;2022-09-14T00:36:38;0.17;;;0.17;;
28298;SDS011;15565;52.600;6.456;2022-09-14T00:39:26;0.38;;;0.25;;
28298;SDS011;15565;52.600;6.456;2022-09-14T00:42:16;0.32;;;0.20;;
28298;SDS011;15565;52.600;6.456;2022-09-14T00:45:05;0.20;;;0.13;;
28298;SDS011;15565;52.600;6.456;2022-09-14T00:47:54;0.13;;;0.13;;
28298;SDS011;15565;52.600;6.456;2022-09-14T00:50:41;0.10;;;0.10;;
28298;SDS011;15565;52.600;6.456;2022-09-14T00:53:29;0.10;;;0.10;;
28298;SDS011;15565;52.600;6.456;2022-09-14T00:56:17;1.30;;;0.10;;
28298;SDS011;15565;52.600;6.456;2022-09-14T00:59:06;0.30;;;0.28;;
28298;SDS011;15565;52.600;6.456;2022-09-14T01:01:55;0.17;;;0.17;;
28298;SDS011;15565;52.600;6.456;2022-09-14T01:04:42;0.20;;;0.17;;
28298;SDS011;15565;52.600;6.456;2022-09-14T01:07:38;0.10;;;0.10;;
28298;SDS011;15565;52.600;6.456;2022-09-14T01:10:31;0.20;;;0.20;;
28298;SDS011;15565;52.600;6.456;2022-09-14T01:13:23;0.10;;;0.10;;
28298;SDS011;15565;52.600;6.456;2022-09-14T01:16:19;0.10;;;0.10;;
28298;SDS011;15565;52.600;6.456;2022-09-14T01:19:14;0.77;;;0.25;;
28298;SDS011;15565;52.600;6.456;2022-09-14T01:22:07;0.08;;;0.08;;
28298;SDS011;15565;52.600;6.456;2022-09-14T01:24:58;0.20;;;0.20;;
28298;SDS011;15565;52.600;6.456;2022-09-14T01:27:52;0.17;;;0.15;;
28298;SDS011;15565;52.600;6.456;2022-09-14T01:30:41;0.30;;;0.22;;
28298;SDS011;15565;52.600;6.456;2022-09-14T01:33:31;1.40;;;0.38;;
28298;SDS011;15565;52.600;6.456;2022-09-14T01:36:19;0.93;;;0.93;;
28298;SDS011;15565;52.600;6.456;2022-09-14T01:39:07;0.17;;;0.10;;
28298;SDS011;15565;52.600;6.456;2022-09-14T01:41:54;1.27;;;0.40;;
28298;SDS011;15565;52.600;6.456;2022-09-14T01:44:44;0.10;;;0.10;;
28298;SDS011;15565;52.600;6.456;2022-09-14T01:47:35;0.57;;;0.20;;
28298;SDS011;15565;52.600;6.456;2022-09-14T01:50:25;0.25;;;0.10;;
28298;SDS011;15565;52.600;6.456;2022-09-14T01:53:14;1.10;;;0.20;;
28298;SDS011;15565;52.600;6.456;2022-09-14T01:56:04;0.17;;;0.17;;
28298;SDS011;15565;52.600;6.456;2022-09-14T01:58:53;0.13;;;0.10;;
28298;SDS011;15565;52.600;6.456;2022-09-14T02:01:46;0.30;;;0.17;;
28298;SDS011;15565;52.600;6.456;2022-09-14T02:04:38;0.17;;;0.17;;
28298;SDS011;15565;52.600;6.456;2022-09-14T02:07:27;1.80;;;0.50;;
28298;SDS011;15565;52.600;6.456;2022-09-14T02:10:15;0.30;;;0.30;;
28298;SDS011;15565;52.600;6.456;2022-09-14T02:13:03;0.10;;;0.10;;
28298;SDS011;15565;52.600;6.456;2022-09-14T02:15:50;0.30;;;0.20;;
28298;SDS011;15565;52.600;6.456;2022-09-14T02:18:39;0.60;;;0.35;;
28298;SDS011;15565;52.600;6.456;2022-09-14T02:21:28;0.60;;;0.10;;
28298;SDS011;15565;52.600;6.456;2022-09-14T02:24:15;0.20;;;0.10;;
28298;SDS011;15565;52.600;6.456;2022-09-14T02:27:03;1.15;;;0.22;;
28298;SDS011;15565;52.600;6.456;2022-09-14T02:29:53;1.20;;;0.23;;
28298;SDS011;15565;52.600;6.456;2022-09-14T02:32:43;0.10;;;0.10;;
28298;SDS011;15565;52.600;6.456;2022-09-14T02:35:37;0.38;;;0.20;;
28298;SDS011;15565;52.600;6.456;2022-09-14T02:38:26;0.70;;;0.20;;
28298;SDS011;15565;52.600;6.456;2022-09-14T02:41:16;0.30;;;0.30;;
28298;SDS011;15565;52.600;6.456;2022-09-14T02:44:03;0.20;;;0.15;;
28298;SDS011;15565;52.600;6.456;2022-09-14T02:46:57;0.00;;;0.00;;
28298;SDS011;15565;52.600;6.456;2022-09-14T02:49:47;0.10;;;0.10;;
28298;SDS011;15565;52.600;6.456;2022-09-14T02:52:39;0.40;;;0.20;;
28298;SDS011;15565;52.600;6.456;2022-09-14T02:55:31;0.53;;;0.13;;
28298;SDS011;15565;52.600;6.456;2022-09-14T02:58:20;0.10;;;0.10;;
28298;SDS011;15565;52.600;6.456;2022-09-14T03:01:08;0.30;;;0.10;;
28298;SDS011;15565;52.600;6.456;2022-09-14T03:03:56;0.63;;;0.63;;
28298;SDS011;15565;52.600;6.456;2022-09-14T03:06:46;0.20;;;0.20;;
28298;SDS011;15565;52.600;6.456;2022-09-14T03:09:36;1.80;;;0.50;;
28298;SDS011;15565;52.600;6.456;2022-09-14T03:12:24;0.20;;;0.20;;
28298;SDS011;15565;52.600;6.456;2022-09-14T03:15:11;0.20;;;0.20;;
28298;SDS011;15565;52.600;6.456;2022-09-14T03:17:58;0.20;;;0.20;;
28298;SDS011;15565;52.600;6.456;2022-09-14T03:20:45;0.10;;;0.10;;
28298;SDS011;15565;52.600;6.456;2022-09-14T03:23:36;0.10;;;0.10;;
28298;SDS011;15565;52.600;6.456;2022-09-14T03:26:27;0.52;;;0.20;;
28298;SDS011;15565;52.600;6.456;2022-09-14T03:29:14;0.10;;;0.10;;
28298;SDS011;15565;52.600;6.456;2022-09-14T03:32:01;0.35;;;0.35;;
28298;SDS011;15565;52.600;6.456;2022-09-14T03:34:48;0.47;;;0.17;;
28298;SDS011;15565;52.600;6.456;2022-09-14T03:37:36;0.37;;;0.27;;
28298;SDS011;15565;52.600;6.456;2022-09-14T03:40:24;0.10;;;0.10;;
28298;SDS011;15565;52.600;6.456;2022-09-14T03:43:13;0.70;;;0.30;;
28298;SDS011;15565;52.600;6.456;2022-09-14T03:46:05;0.20;;;0.20;;
28298;SDS011;15565;52.600;6.456;2022-09-14T03:48:53;0.20;;;0.20;;
28298;SDS011;15565;52.600;6.456;2022-09-14T03:51:42;0.17;;;0.17;;
28298;SDS011;15565;52.600;6.456;2022-09-14T03:54:29;0.10;;;0.10;;
28298;SDS011;15565;52.600;6.456;2022-09-14T03:57:16;0.50;;;0.10;;
28298;SDS011;15565;52.600;6.456;2022-09-14T04:00:05;0.10;;;0.10;;
28298;SDS011;15565;52.600;6.456;2022-09-14T04:02:55;0.73;;;0.30;;
28298;SDS011;15565;52.600;6.456;2022-09-14T04:05:52;1.35;;;0.30;;
28298;SDS011;15565;52.600;6.456;2022-09-14T04:08:40;0.10;;;0.10;;
28298;SDS011;15565;52.600;6.456;2022-09-14T04:11:28;0.75;;;0.20;;
28298;SDS011;15565;52.600;6.456;2022-09-14T04:14:17;1.00;;;0.40;;
28298;SDS011;15565;52.600;6.456;2022-09-14T04:17:05;0.40;;;0.35;;
28298;SDS011;15565;52.600;6.456;2022-09-14T04:19:52;1.25;;;0.30;;
28298;SDS011;15565;52.600;6.456;2022-09-14T04:22:39;0.08;;;0.08;;
28298;SDS011;15565;52.600;6.456;2022-09-14T04:25:29;0.40;;;0.35;;
28298;SDS011;15565;52.600;6.456;2022-09-14T04:28:16;0.63;;;0.35;;
28298;SDS011;15565;52.600;6.456;2022-09-14T04:31:05;0.10;;;0.10;;
28298;SDS011;15565;52.600;6.456;2022-09-14T04:33:54;0.60;;;0.28;;
28298;SDS011;15565;52.600;6.456;2022-09-14T04:36:41;0.15;;;0.10;;
28298;SDS011;15565;52.600;6.456;2022-09-14T04:39:29;0.60;;;0.20;;
28298;SDS011;15565;52.600;6.456;2022-09-14T04:42:16;0.30;;;0.30;;
28298;SDS011;15565;52.600;6.456;2022-09-14T04:45:03;0.80;;;0.30;;
28298;SDS011;15565;52.600;6.456;2022-09-14T04:47:50;0.50;;;0.20;;
28298;SDS011;15565;52.600;6.456;2022-09-14T04:50:39;0.10;;;0.10;;
28298;SDS011;15565;52.600;6.456;2022-09-14T04:53:26;0.40;;;0.30;;
28298;SDS011;15565;52.600;6.456;2022-09-14T04:56:14;0.70;;;0.17;;
28298;SDS011;15565;52.600;6.456;2022-09-14T04:59:02;0.10;;;0.10;;
28298;SDS011;15565;52.600;6.456;2022-09-14T05:01:50;0.40;;;0.40;;
28298;SDS011;15565;52.600;6.456;2022-09-14T05:04:37;0.50;;;0.30;;
28298;SDS011;15565;52.600;6.456;2022-09-14T05:07:25;0.80;;;0.10;;
28298;SDS011;15565;52.600;6.456;2022-09-14T05:10:13;1.42;;;0.20;;
28298;SDS011;15565;52.600;6.456;2022-09-14T05:13:03;0.40;;;0.30;;
28298;SDS011;15565;52.600;6.456;2022-09-14T05:15:51;1.55;;;0.20;;
28298;SDS011;15565;52.600;6.456;2022-09-14T05:18:41;0.20;;;0.20;;
28298;SDS011;15565;52.600;6.456;2022-09-14T05:21:30;0.25;;;0.25;;
28298;SDS011;15565;52.600;6.456;2022-09-14T05:24:19;0.30;;;0.10;;
28298;SDS011;15565;52.600;6.456;2022-09-14T05:27:06;0.60;;;0.50;;
28298;SDS011;15565;52.600;6.456;2022-09-14T05:29:53;0.10;;;0.10;;
28298;SDS011;15565;52.600;6.456;2022-09-14T05:32:40;0.30;;;0.25;;
28298;SDS011;15565;52.600;6.456;2022-09-14T05:35:27;0.10;;;0.10;;
28298;SDS011;15565;52.600;6.456;2022-09-14T05:38:14;0.10;;;0.10;;
28298;SDS011;15565;52.600;6.456;2022-09-14T05:41:03;0.20;;;0.10;;
28298;SDS011;15565;52.600;6.456;2022-09-14T05:43:50;0.20;;;0.20;;
28298;SDS011;15565;52.600;6.456;2022-09-14T05:46:37;0.20;;;0.10;;
28298;SDS011;15565;52.600;6.456;2022-09-14T05:49:25;0.50;;;0.20;;
28298;SDS011;15565;52.600;6.456;2022-09-14T05:52:12;0.20;;;0.20;;
28298;SDS011;15565;52.600;6.456;2022-09-14T05:54:59;0.10;;;0.10;;
28298;SDS011;15565;52.600;6.456;2022-09-14T05:57:48;0.30;;;0.30;;
28298;SDS011;15565;52.600;6.456;2022-09-14T06:00:35;0.10;;;0.10;;
28298;SDS011;15565;52.600;6.456;2022-09-14T06:03:23;0.47;;;0.30;;
28298;SDS011;15565;52.600;6.456;2022-09-14T06:06:11;0.30;;;0.30;;
28298;SDS011;15565;52.600;6.456;2022-09-14T06:08:59;0.80;;;0.30;;
28298;SDS011;15565;52.600;6.456;2022-09-14T06:11:46;0.20;;;0.13;;
28298;SDS011;15565;52.600;6.456;2022-09-14T06:14:35;0.20;;;0.20;;
28298;SDS011;15565;52.600;6.456;2022-09-14T06:17:24;0.20;;;0.20;;
28298;SDS011;15565;52.600;6.456;2022-09-14T06:20:11;0.20;;;0.20;;
28298;SDS011;15565;52.600;6.456;2022-09-14T06:22:58;1.20;;;0.20;;
28298;SDS011;15565;52.600;6.456;2022-09-14T06:25:45;0.40;;;0.40;;
28298;SDS011;15565;52.600;6.456;2022-09-14T06:28:33;0.45;;;0.20;;
28298;SDS011;15565;52.600;6.456;2022-09-14T06:31:22;0.13;;;0.13;;
28298;SDS011;15565;52.600;6.456;2022-09-14T06:34:09;0.80;;;0.10;;
28298;SDS011;15565;52.600;6.456;2022-09-14T06:36:56;0.90;;;0.30;;
28298;SDS011;15565;52.600;6.456;2022-09-14T06:39:43;0.20;;;0.20;;
28298;SDS011;15565;52.600;6.456;2022-09-14T06:42:30;0.20;;;0.20;;
28298;SDS011;15565;52.600;6.456;2022-09-14T06:45:17;0.47;;;0.30;;
28298;SDS011;15565;52.600;6.456;2022-09-14T06:48:06;0.40;;;0.30;;
28298;SDS011;15565;52.600;6.456;2022-09-14T06:50:55;0.30;;;0.30;;
28298;SDS011;15565;52.600;6.456;2022-09-14T06:53:42;0.73;;;0.47;;
28298;SDS011;15565;52.600;6.456;2022-09-14T06:56:30;0.47;;;0.30;;
28298;SDS011;15565;52.600;6.456;2022-09-14T06:59:17;0.40;;;0.30;;
28298;SDS011;15565;52.600;6.456;2022-09-14T07:02:05;0.82;;;0.30;;
28298;SDS011;15565;52.600;6.456;2022-09-14T07:04:53;0.77;;;0.30;;
28298;SDS011;15565;52.600;6.456;2022-09-14T07:07:41;0.30;;;0.10;;
28298;SDS011;15565;52.600;6.456;2022-09-14T07:10:28;0.50;;;0.20;;
28298;SDS011;15565;52.600;6.456;2022-09-14T07:13:18;0.70;;;0.20;;
28298;SDS011;15565;52.600;6.456;2022-09-14T07:16:11;0.28;;;0.20;;
28298;SDS011;15565;52.600;6.456;2022-09-14T07:18:59;0.10;;;0.10;;
28298;SDS011;15565;52.600;6.456;2022-09-14T07:21:48;0.28;;;0.20;;
28298;SDS011;15565;52.600;6.456;2022-09-14T07:24:38;1.10;;;0.20;;
28298;SDS011;15565;52.600;6.456;2022-09-14T07:27:25;0.40;;;0.40;;
28298;SDS011;15565;52.600;6.456;2022-09-14T07:30:12;0.70;;;0.20;;
28298;SDS011;15565;52.600;6.456;2022-09-14T07:32:59;0.90;;;0.20;;
28298;SDS011;15565;52.600;6.456;2022-09-14T07:35:47;0.20;;;0.20;;
28298;SDS011;15565;52.600;6.456;2022-09-14T07:38:35;0.30;;;0.30;;
28298;SDS011;15565;52.600;6.456;2022-09-14T07:41:37;0.55;;;0.28;;
28298;SDS011;15565;52.600;6.456;2022-09-14T07:44:24;0.47;;;0.47;;
28298;SDS011;15565;52.600;6.456;2022-09-14T07:47:11;1.65;;;0.32;;
28298;SDS011;15565;52.600;6.456;2022-09-14T07:49:58;0.40;;;0.40;;
28298;SDS011;15565;52.600;6.456;2022-09-14T07:52:47;1.00;;;0.30;;
28298;SDS011;15565;52.600;6.456;2022-09-14T07:55:38;1.40;;;0.43;;
28298;SDS011;15565;52.600;6.456;2022-09-14T07:58:26;0.25;;;0.17;;
28298;SDS011;15565;52.600;6.456;2022-09-14T08:01:14;1.10;;;0.30;;
28298;SDS011;15565;52.600;6.456;2022-09-14T08:04:03;1.88;;;0.47;;
28298;SDS011;15565;52.600;6.456;2022-09-14T08:06:50;2.53;;;0.50;;
28298;SDS011;15565;52.600;6.456;2022-09-14T08:09:37;1.38;;;0.45;;
28298;SDS011;15565;52.600;6.456;2022-09-14T08:12:25;0.82;;;0.30;;
28298;SDS011;15565;52.600;6.456;2022-09-14T08:15:12;1.00;;;0.57;;
28298;SDS011;15565;52.600;6.456;2022-09-14T08:18:00;0.93;;;0.43;;
28298;SDS011;15565;52.600;6.456;2022-09-14T08:20:47;0.40;;;0.25;;
28298;SDS011;15565;52.600;6.456;2022-09-14T08:23:37;1.13;;;0.50;;
28298;SDS011;15565;52.600;6.456;2022-09-14T08:26:26;0.80;;;0.50;;
28298;SDS011;15565;52.600;6.456;2022-09-14T08:29:18;1.83;;;0.47;;
28298;SDS011;15565;52.600;6.456;2022-09-14T08:32:05;0.90;;;0.50;;
28298;SDS011;15565;52.600;6.456;2022-09-14T08:34:52;1.23;;;0.70;;
28298;SDS011;15565;52.600;6.456;2022-09-14T08:37:39;2.13;;;0.70;;
28298;SDS011;15565;52.600;6.456;2022-09-14T08:40:26;0.90;;;0.32;;
28298;SDS011;15565;52.600;6.456;2022-09-14T08:43:17;0.63;;;0.38;;
28298;SDS011;15565;52.600;6.456;2022-09-14T08:46:08;1.47;;;0.70;;
28298;SDS011;15565;52.600;6.456;2022-09-14T08:48:57;1.38;;;0.55;;
28298;SDS011;15565;52.600;6.456;2022-09-14T08:51:48;0.50;;;0.30;;
28298;SDS011;15565;52.600;6.456;2022-09-14T08:54:36;0.70;;;0.50;;
28298;SDS011;15565;52.600;6.456;2022-09-14T08:57:27;0.70;;;0.32;;
28298;SDS011;15565;52.600;6.456;2022-09-14T09:00:17;0.82;;;0.32;;
28298;SDS011;15565;52.600;6.456;2022-09-14T09:06:17;2.17;;;0.43;;
28298;SDS011;15565;52.600;6.456;2022-09-14T09:09:06;0.50;;;0.40;;
28298;SDS011;15565;52.600;6.456;2022-09-14T09:11:56;1.08;;;0.47;;
28298;SDS011;15565;52.600;6.456;2022-09-14T09:14:46;0.43;;;0.20;;
28298;SDS011;15565;52.600;6.456;2022-09-14T09:17:35;1.33;;;0.40;;
28298;SDS011;15565;52.600;6.456;2022-09-14T09:20:25;1.80;;;0.40;;
28298;SDS011;15565;52.600;6.456;2022-09-14T09:23:15;0.20;;;0.20;;
28298;SDS011;15565;52.600;6.456;2022-09-14T09:26:04;0.20;;;0.20;;
28298;SDS011;15565;52.600;6.456;2022-09-14T09:28:53;1.60;;;0.30;;
28298;SDS011;15565;52.600;6.456;2022-09-14T09:31:41;2.03;;;0.32;;
28298;SDS011;15565;52.600;6.456;2022-09-14T09:34:57;0.68;;;0.22;;
28298;SDS011;15565;52.600;6.456;2022-09-14T09:37:58;1.20;;;0.20;;
28298;SDS011;15565;52.600;6.456;2022-09-14T09:40:51;0.43;;;0.20;;
28298;SDS011;15565;52.600;6.456;2022-09-14T09:43:47;0.30;;;0.20;;
28298;SDS011;15565;52.600;6.456;2022-09-14T09:46:46;0.80;;;0.40;;
28298;SDS011;15565;52.600;6.456;2022-09-14T09:49:35;4.40;;;0.65;;
28298;SDS011;15565;52.600;6.456;2022-09-14T09:52:23;0.45;;;0.40;;
28298;SDS011;15565;52.600;6.456;2022-09-14T09:55:16;0.50;;;0.50;;
28298;SDS011;15565;52.600;6.456;2022-09-14T09:58:20;0.90;;;0.52;;
28298;SDS011;15565;52.600;6.456;2022-09-14T10:01:17;0.50;;;0.30;;
28298;SDS011;15565;52.600;6.456;2022-09-14T10:04:14;0.55;;;0.45;;
28298;SDS011;15565;52.600;6.456;2022-09-14T10:07:02;0.30;;;0.30;;
28298;SDS011;15565;52.600;6.456;2022-09-14T10:09:56;1.60;;;0.30;;
28298;SDS011;15565;52.600;6.456;2022-09-14T10:12:44;0.95;;;0.32;;
28298;SDS011;15565;52.600;6.456;2022-09-14T10:15:33;2.10;;;0.50;;
28298;SDS011;15565;52.600;6.456;2022-09-14T10:18:21;0.50;;;0.50;;
28298;SDS011;15565;52.600;6.456;2022-09-14T10:21:09;0.70;;;0.30;;
28298;SDS011;15565;52.600;6.456;2022-09-14T10:24:04;1.45;;;0.45;;
28298;SDS011;15565;52.600;6.456;2022-09-14T10:26:54;1.20;;;0.70;;
28298;SDS011;15565;52.600;6.456;2022-09-14T10:29:41;0.70;;;0.52;;
28298;SDS011;15565;52.600;6.456;2022-09-14T10:32:34;1.20;;;0.70;;
28298;SDS011;15565;52.600;6.456;2022-09-14T10:35:23;2.83;;;0.50;;
28298;SDS011;15565;52.600;6.456;2022-09-14T10:38:23;1.92;;;0.95;;
28298;SDS011;15565;52.600;6.456;2022-09-14T10:41:18;1.10;;;0.37;;
28298;SDS011;15565;52.600;6.456;2022-09-14T10:44:31;0.20;;;0.20;;
28298;SDS011;15565;52.600;6.456;2022-09-14T10:47:24;1.05;;;0.50;;
28298;SDS011;15565;52.600;6.456;2022-09-14T10:50:22;2.47;;;0.50;;
28298;SDS011;15565;52.600;6.456;2022-09-14T10:53:15;0.70;;;0.40;;
28298;SDS011;15565;52.600;6.456;2022-09-14T10:56:05;1.60;;;0.50;;
28298;SDS011;15565;52.600;6.456;2022-09-14T10:59:01;0.50;;;0.30;;
28298;SDS011;15565;52.600;6.456;2022-09-14T11:02:08;1.10;;;0.40;;
28298;SDS011;15565;52.600;6.456;2022-09-14T11:05:09;1.00;;;0.30;;
28298;SDS011;15565;52.600;6.456;2022-09-14T11:08:02;1.38;;;0.52;;
28298;SDS011;15565;52.600;6.456;2022-09-14T11:11:09;0.30;;;0.13;;
28298;SDS011;15565;52.600;6.456;2022-09-14T11:14:04;0.40;;;0.20;;
28298;SDS011;15565;52.600;6.456;2022-09-14T11:17:00;0.85;;;0.38;;
28298;SDS011;15565;52.600;6.456;2022-09-14T11:19:50;0.30;;;0.20;;
28298;SDS011;15565;52.600;6.456;2022-09-14T11:22:48;0.90;;;0.40;;
28298;SDS011;15565;52.600;6.456;2022-09-14T11:25:41;0.50;;;0.35;;
28298;SDS011;15565;52.600;6.456;2022-09-14T11:28:31;0.90;;;0.40;;
28298;SDS011;15565;52.600;6.456;2022-09-14T11:31:19;0.60;;;0.30;;
28298;SDS011;15565;52.600;6.456;2022-09-14T11:34:10;0.80;;;0.50;;
28298;SDS011;15565;52.600;6.456;2022-09-14T11:37:02;0.52;;;0.30;;
28298;SDS011;15565;52.600;6.456;2022-09-14T11:39:53;0.10;;;0.10;;
28298;SDS011;15565;52.600;6.456;2022-09-14T11:42:47;0.90;;;0.20;;
28298;SDS011;15565;52.600;6.456;2022-09-14T11:45:38;0.30;;;0.30;;
28298;SDS011;15565;52.600;6.456;2022-09-14T11:48:29;0.75;;;0.40;;
28298;SDS011;15565;52.600;6.456;2022-09-14T11:51:28;1.35;;;0.47;;
28298;SDS011;15565;52.600;6.456;2022-09-14T11:54:17;0.43;;;0.30;;
28298;SDS011;15565;52.600;6.456;2022-09-14T11:57:05;0.70;;;0.20;;
28298;SDS011;15565;52.600;6.456;2022-09-14T11:59:56;1.70;;;0.10;;
28298;SDS011;15565;52.600;6.456;2022-09-14T12:02:54;0.40;;;0.20;;
28298;SDS011;15565;52.600;6.456;2022-09-14T12:05:43;0.60;;;0.20;;
28298;SDS011;15565;52.600;6.456;2022-09-14T12:08:39;0.50;;;0.32;;
28298;SDS011;15565;52.600;6.456;2022-09-14T12:11:30;0.28;;;0.20;;
28298;SDS011;15565;52.600;6.456;2022-09-14T12:14:24;0.20;;;0.20;;
28298;SDS011;15565;52.600;6.456;2022-09-14T12:17:16;0.10;;;0.10;;
28298;SDS011;15565;52.600;6.456;2022-09-14T12:20:36;0.20;;;0.20;;
28298;SDS011;15565;52.600;6.456;2022-09-14T12:23:25;0.30;;;0.20;;
28298;SDS011;15565;52.600;6.456;2022-09-14T12:29:25;1.20;;;0.30;;
28298;SDS011;15565;52.600;6.456;2022-09-14T12:32:27;0.90;;;0.15;;
28298;SDS011;15565;52.600;6.456;2022-09-14T12:38:42;3.40;;;0.40;;
28298;SDS011;15565;52.600;6.456;2022-09-14T12:42:00;0.40;;;0.20;;
28298;SDS011;15565;52.600;6.456;2022-09-14T12:44:47;0.73;;;0.43;;
28298;SDS011;15565;52.600;6.456;2022-09-14T12:47:47;0.90;;;0.30;;
28298;SDS011;15565;52.600;6.456;2022-09-14T12:50:35;0.57;;;0.35;;
28298;SDS011;15565;52.600;6.456;2022-09-14T12:53:25;0.90;;;0.30;;
28298;SDS011;15565;52.600;6.456;2022-09-14T12:56:15;0.40;;;0.30;;
28298;SDS011;15565;52.600;6.456;2022-09-14T12:59:05;1.80;;;0.50;;
28298;SDS011;15565;52.600;6.456;2022-09-14T13:01:56;0.52;;;0.20;;
28298;SDS011;15565;52.600;6.456;2022-09-14T13:04:50;1.70;;;0.40;;
28298;SDS011;15565;52.600;6.456;2022-09-14T13:07:40;0.95;;;0.43;;
28298;SDS011;15565;52.600;6.456;2022-09-14T13:10:31;0.47;;;0.35;;
28298;SDS011;15565;52.600;6.456;2022-09-14T13:13:19;0.10;;;0.10;;
28298;SDS011;15565;52.600;6.456;2022-09-14T13:16:07;0.50;;;0.30;;
28298;SDS011;15565;52.600;6.456;2022-09-14T13:18:58;0.10;;;0.10;;
28298;SDS011;15565;52.600;6.456;2022-09-14T13:21:48;0.40;;;0.20;;
28298;SDS011;15565;52.600;6.456;2022-09-14T13:24:36;0.82;;;0.43;;
28298;SDS011;15565;52.600;6.456;2022-09-14T13:27:28;0.60;;;0.30;;
28298;SDS011;15565;52.600;6.456;2022-09-14T13:30:17;0.30;;;0.20;;
28298;SDS011;15565;52.600;6.456;2022-09-14T13:33:05;0.30;;;0.30;;
28298;SDS011;15565;52.600;6.456;2022-09-14T13:35:53;0.30;;;0.30;;
28298;SDS011;15565;52.600;6.456;2022-09-14T13:38:42;0.22;;;0.20;;
28298;SDS011;15565;52.600;6.456;2022-09-14T13:41:29;0.30;;;0.20;;
28298;SDS011;15565;52.600;6.456;2022-09-14T13:44:25;0.30;;;0.20;;
28298;SDS011;15565;52.600;6.456;2022-09-14T13:47:14;0.70;;;0.30;;
28298;SDS011;15565;52.600;6.456;2022-09-14T13:50:04;0.90;;;0.30;;
28298;SDS011;15565;52.600;6.456;2022-09-14T13:52:52;0.77;;;0.17;;
28298;SDS011;15565;52.600;6.456;2022-09-14T13:55:48;0.60;;;0.17;;
28298;SDS011;15565;52.600;6.456;2022-09-14T13:58:35;0.20;;;0.20;;
28298;SDS011;15565;52.600;6.456;2022-09-14T14:01:26;0.70;;;0.20;;
28298;SDS011;15565;52.600;6.456;2022-09-14T14:04:20;1.35;;;0.35;;
28298;SDS011;15565;52.600;6.456;2022-09-14T14:07:14;2.10;;;0.30;;
28298;SDS011;15565;52.600;6.456;2022-09-14T14:10:02;0.22;;;0.22;;
28298;SDS011;15565;52.600;6.456;2022-09-14T14:12:53;2.00;;;0.28;;
28298;SDS011;15565;52.600;6.456;2022-09-14T14:15:42;0.20;;;0.20;;
28298;SDS011;15565;52.600;6.456;2022-09-14T14:18:30;0.90;;;0.10;;
28298;SDS011;15565;52.600;6.456;2022-09-14T14:21:29;1.30;;;0.30;;
28298;SDS011;15565;52.600;6.456;2022-09-14T14:24:17;0.40;;;0.28;;
28298;SDS011;15565;52.600;6.456;2022-09-14T14:27:04;0.10;;;0.10;;
28298;SDS011;15565;52.600;6.456;2022-09-14T14:29:53;0.40;;;0.30;;
28298;SDS011;15565;52.600;6.456;2022-09-14T14:32:41;0.50;;;0.20;;
28298;SDS011;15565;52.600;6.456;2022-09-14T14:35:29;1.20;;;0.20;;
28298;SDS011;15565;52.600;6.456;2022-09-14T14:38:16;0.70;;;0.20;;
28298;SDS011;15565;52.600;6.456;2022-09-14T14:41:03;0.17;;;0.10;;
28298;SDS011;15565;52.600;6.456;2022-09-14T14:43:53;0.10;;;0.10;;
28298;SDS011;15565;52.600;6.456;2022-09-14T14:46:42;0.32;;;0.20;;
28298;SDS011;15565;52.600;6.456;2022-09-14T14:49:29;2.40;;;0.50;;
28298;SDS011;15565;52.600;6.456;2022-09-14T14:52:16;3.70;;;0.25;;
28298;SDS011;15565;52.600;6.456;2022-09-14T14:55:06;0.60;;;0.30;;
28298;SDS011;15565;52.600;6.456;2022-09-14T14:57:55;0.13;;;0.13;;
28298;SDS011;15565;52.600;6.456;2022-09-14T15:00:44;0.20;;;0.10;;
28298;SDS011;15565;52.600;6.456;2022-09-14T15:03:32;1.30;;;0.35;;
28298;SDS011;15565;52.600;6.456;2022-09-14T15:06:20;0.55;;;0.10;;
28298;SDS011;15565;52.600;6.456;2022-09-14T15:09:09;1.30;;;0.32;;
28298;SDS011;15565;52.600;6.456;2022-09-14T15:11:59;0.15;;;0.13;;
28298;SDS011;15565;52.600;6.456;2022-09-14T15:14:47;0.17;;;0.17;;
28298;SDS011;15565;52.600;6.456;2022-09-14T15:17:34;0.60;;;0.50;;
28298;SDS011;15565;52.600;6.456;2022-09-14T15:20:22;0.30;;;0.30;;
28298;SDS011;15565;52.600;6.456;2022-09-14T15:23:10;0.20;;;0.20;;
28298;SDS011;15565;52.600;6.456;2022-09-14T15:25:58;0.80;;;0.20;;
28298;SDS011;15565;52.600;6.456;2022-09-14T15:28:45;0.30;;;0.20;;
28298;SDS011;15565;52.600;6.456;2022-09-14T15:31:33;0.45;;;0.20;;
28298;SDS011;15565;52.600;6.456;2022-09-14T15:34:21;1.83;;;0.20;;
28298;SDS011;15565;52.600;6.456;2022-09-14T15:37:09;0.10;;;0.10;;
28298;SDS011;15565;52.600;6.456;2022-09-14T15:39:56;0.80;;;0.80;;
28298;SDS011;15565;52.600;6.456;2022-09-14T15:42:43;0.38;;;0.22;;
28298;SDS011;15565;52.600;6.456;2022-09-14T15:45:31;1.45;;;0.13;;
28298;SDS011;15565;52.600;6.456;2022-09-14T15:48:18;0.10;;;0.10;;
28298;SDS011;15565;52.600;6.456;2022-09-14T15:51:08;0.10;;;0.10;;
28298;SDS011;15565;52.600;6.456;2022-09-14T15:53:57;0.70;;;0.20;;
28298;SDS011;15565;52.600;6.456;2022-09-14T15:56:46;0.40;;;0.20;;
28298;SDS011;15565;52.600;6.456;2022-09-14T15:59:34;1.10;;;0.33;;
28298;SDS011;15565;52.600;6.456;2022-09-14T16:02:21;1.02;;;0.30;;
28298;SDS011;15565;52.600;6.456;2022-09-14T16:05:08;0.30;;;0.30;;
28298;SDS011;15565;52.600;6.456;2022-09-14T16:07:57;0.35;;;0.30;;
28298;SDS011;15565;52.600;6.456;2022-09-14T16:10:45;1.20;;;0.20;;
28298;SDS011;15565;52.600;6.456;2022-09-14T16:13:32;3.20;;;0.60;;
28298;SDS011;15565;52.600;6.456;2022-09-14T16:16:19;0.80;;;0.30;;
28298;SDS011;15565;52.600;6.456;2022-09-14T16:19:07;0.70;;;0.52;;
28298;SDS011;15565;52.600;6.456;2022-09-14T16:21:55;3.05;;;0.70;;
28298;SDS011;15565;52.600;6.456;2022-09-14T16:24:42;4.97;;;1.15;;
28298;SDS011;15565;52.600;6.456;2022-09-14T16:27:30;2.75;;;0.80;;
28298;SDS011;15565;52.600;6.456;2022-09-14T16:30:17;3.43;;;0.70;;
28298;SDS011;15565;52.600;6.456;2022-09-14T16:33:07;2.83;;;1.25;;
28298;SDS011;15565;52.600;6.456;2022-09-14T16:36:00;3.70;;;1.65;;
28298;SDS011;15565;52.600;6.456;2022-09-14T16:38:47;6.03;;;1.52;;
28298;SDS011;15565;52.600;6.456;2022-09-14T16:41:34;8.40;;;1.60;;
28298;SDS011;15565;52.600;6.456;2022-09-14T16:44:26;7.13;;;1.30;;
28298;SDS011;15565;52.600;6.456;2022-09-14T16:47:13;5.93;;;1.95;;
28298;SDS011;15565;52.600;6.456;2022-09-14T16:50:00;8.85;;;1.92;;
28298;SDS011;15565;52.600;6.456;2022-09-14T16:52:47;4.83;;;1.40;;
28298;SDS011;15565;52.600;6.456;2022-09-14T16:55:34;8.48;;;1.80;;
28298;SDS011;15565;52.600;6.456;2022-09-14T16:58:21;5.75;;;1.50;;
28298;SDS011;15565;52.600;6.456;2022-09-14T17:01:12;5.88;;;1.60;;
28298;SDS011;15565;52.600;6.456;2022-09-14T17:04:01;2.20;;;0.90;;
28298;SDS011;15565;52.600;6.456;2022-09-14T17:06:49;0.52;;;0.43;;
28298;SDS011;15565;52.600;6.456;2022-09-14T17:09:37;1.08;;;0.38;;
28298;SDS011;15565;52.600;6.456;2022-09-14T17:12:25;0.88;;;0.47;;